<?xml version="1.0" encoding="UTF-8" standalone="no" ?>
<gpx xmlns="http://www.topografix.com/GPX/1/1" xmlns:xsi="http://www.w3.org/2001/XMLSchema-instance" xsi:schemaLocation="http://www.topografix.com/GPX/1/1 http://www.topografix.com/GPX/1/1/gpx.xsd" version="1.1" creator="VisuGPX - https://www.visugpx.com">
  <metadata>
    <name>Balade à pied - Pecrot - Nethen</name>
  </metadata>
  <wpt lat="50.77825" lon="4.65136">
    <ele>39</ele>
    <name><![CDATA[Gare de Pécrot]]></name>
  </wpt>
  <wpt lat="50.77752" lon="4.65213">
    <ele>45</ele>
    <name><![CDATA[Rue Wauters]]></name>
  </wpt>
  <wpt lat="50.77436" lon="4.65801">
    <ele>79</ele>
    <name><![CDATA[À gauche en haut d'un lotissement]]></name>
  </wpt>
  <wpt lat="50.77688" lon="4.6626">
    <ele>88</ele>
    <name><![CDATA[Vue sur le village de Nethen, à droite ]]></name>
  </wpt>
  <wpt lat="50.78377" lon="4.67408">
    <ele>46</ele>
    <name><![CDATA[Église Saint-Jean-Baptiste Nethen]]></name>
  </wpt>
  <wpt lat="50.78997" lon="4.67367">
    <ele>38</ele>
    <name><![CDATA[À gauche le long de la forêt]]></name>
  </wpt>
  <wpt lat="50.79425" lon="4.66196">
    <ele>48</ele>
    <name><![CDATA[À gauche au panneau explicatif]]></name>
  </wpt>
  <wpt lat="50.78959" lon="4.64955">
    <ele>47</ele>
    <name><![CDATA[Fourche - Maison n°72]]></name>
  </wpt>
  <wpt lat="50.78117" lon="4.65764">
    <ele>85</ele>
    <name><![CDATA[Croisement route Pécrot-Nethen, en face]]></name>
  </wpt>
  <wpt lat="50.77825" lon="4.65133">
    <ele>39</ele>
    <name><![CDATA[Gare de Pécrot]]></name>
  </wpt>
  <trk>
    <name><![CDATA[Campagne et forêt dans le Brabant autour de Pécrot-Nethen]]></name>
    <trkseg>
      <trkpt lat="50.77825" lon="4.65136">
        <ele>39</ele>
        <time>2019-12-30T13:24:09+01:00</time>
      </trkpt>
      <trkpt lat="50.77807" lon="4.65228">
        <ele>45</ele>
        <time>2019-12-30T13:24:14+01:00</time>
      </trkpt>
      <trkpt lat="50.77752" lon="4.65213">
        <ele>45</ele>
        <time>2019-12-30T13:24:19+01:00</time>
      </trkpt>
      <trkpt lat="50.7771" lon="4.65361">
        <ele>64</ele>
        <time>2019-12-30T13:24:24+01:00</time>
      </trkpt>
      <trkpt lat="50.77719" lon="4.65449">
        <ele>63</ele>
        <time>2019-12-30T13:24:29+01:00</time>
      </trkpt>
      <trkpt lat="50.776" lon="4.65582">
        <ele>77</ele>
        <time>2019-12-30T13:24:34+01:00</time>
      </trkpt>
      <trkpt lat="50.77487" lon="4.65726">
        <ele>79</ele>
        <time>2019-12-30T13:24:39+01:00</time>
      </trkpt>
      <trkpt lat="50.77436" lon="4.65801">
        <ele>79</ele>
        <time>2019-12-30T13:24:44+01:00</time>
      </trkpt>
      <trkpt lat="50.77577" lon="4.66022">
        <ele>80</ele>
        <time>2019-12-30T13:24:49+01:00</time>
      </trkpt>
      <trkpt lat="50.77688" lon="4.6626">
        <ele>88</ele>
        <time>2019-12-30T13:24:54+01:00</time>
      </trkpt>
      <trkpt lat="50.77558" lon="4.66363">
        <ele>83</ele>
        <time>2019-12-30T13:24:59+01:00</time>
      </trkpt>
      <trkpt lat="50.77687" lon="4.66399">
        <ele>78</ele>
        <time>2019-12-30T13:25:04+01:00</time>
      </trkpt>
      <trkpt lat="50.77814" lon="4.66562">
        <ele>75</ele>
        <time>2019-12-30T13:25:09+01:00</time>
      </trkpt>
      <trkpt lat="50.77828" lon="4.66586">
        <ele>74</ele>
        <time>2019-12-30T13:25:14+01:00</time>
      </trkpt>
      <trkpt lat="50.78033" lon="4.66957">
        <ele>56</ele>
        <time>2019-12-30T13:25:19+01:00</time>
      </trkpt>
      <trkpt lat="50.78254" lon="4.67198">
        <ele>49</ele>
        <time>2019-12-30T13:25:24+01:00</time>
      </trkpt>
      <trkpt lat="50.78338" lon="4.67354">
        <ele>46</ele>
        <time>2019-12-30T13:25:29+01:00</time>
      </trkpt>
      <trkpt lat="50.78377" lon="4.67408">
        <ele>46</ele>
        <time>2019-12-30T13:25:34+01:00</time>
      </trkpt>
      <trkpt lat="50.78307" lon="4.67498">
        <ele>45</ele>
        <time>2019-12-30T13:25:39+01:00</time>
      </trkpt>
      <trkpt lat="50.78315" lon="4.6756">
        <ele>44</ele>
        <time>2019-12-30T13:25:44+01:00</time>
      </trkpt>
      <trkpt lat="50.78388" lon="4.67706">
        <ele>41</ele>
        <time>2019-12-30T13:25:49+01:00</time>
      </trkpt>
      <trkpt lat="50.78406" lon="4.67783">
        <ele>41</ele>
        <time>2019-12-30T13:25:54+01:00</time>
      </trkpt>
      <trkpt lat="50.78617" lon="4.6753">
        <ele>43</ele>
        <time>2019-12-30T13:25:59+01:00</time>
      </trkpt>
      <trkpt lat="50.7868" lon="4.67406">
        <ele>45</ele>
        <time>2019-12-30T13:26:04+01:00</time>
      </trkpt>
      <trkpt lat="50.78763" lon="4.67348">
        <ele>47</ele>
        <time>2019-12-30T13:26:09+01:00</time>
      </trkpt>
      <trkpt lat="50.78824" lon="4.67204">
        <ele>46</ele>
        <time>2019-12-30T13:26:14+01:00</time>
      </trkpt>
      <trkpt lat="50.7899" lon="4.67356">
        <ele>38</ele>
        <time>2019-12-30T13:26:19+01:00</time>
      </trkpt>
      <trkpt lat="50.78997" lon="4.67367">
        <ele>38</ele>
        <time>2019-12-30T13:26:24+01:00</time>
      </trkpt>
      <trkpt lat="50.79122" lon="4.66989">
        <ele>44</ele>
        <time>2019-12-30T13:26:29+01:00</time>
      </trkpt>
      <trkpt lat="50.79217" lon="4.66638">
        <ele>60</ele>
        <time>2019-12-30T13:26:34+01:00</time>
      </trkpt>
      <trkpt lat="50.79241" lon="4.66468">
        <ele>56</ele>
        <time>2019-12-30T13:26:39+01:00</time>
      </trkpt>
      <trkpt lat="50.79339" lon="4.66305">
        <ele>49</ele>
        <time>2019-12-30T13:26:44+01:00</time>
      </trkpt>
      <trkpt lat="50.79425" lon="4.66196">
        <ele>48</ele>
        <time>2019-12-30T13:26:49+01:00</time>
      </trkpt>
      <trkpt lat="50.79361" lon="4.66065">
        <ele>36</ele>
        <time>2019-12-30T13:26:54+01:00</time>
      </trkpt>
      <trkpt lat="50.79302" lon="4.65968">
        <ele>34</ele>
        <time>2019-12-30T13:26:59+01:00</time>
      </trkpt>
      <trkpt lat="50.79138" lon="4.65801">
        <ele>39</ele>
        <time>2019-12-30T13:27:04+01:00</time>
      </trkpt>
      <trkpt lat="50.79206" lon="4.65563">
        <ele>48</ele>
        <time>2019-12-30T13:27:09+01:00</time>
      </trkpt>
      <trkpt lat="50.79221" lon="4.65419">
        <ele>50</ele>
        <time>2019-12-30T13:27:14+01:00</time>
      </trkpt>
      <trkpt lat="50.79171" lon="4.65234">
        <ele>51</ele>
        <time>2019-12-30T13:27:19+01:00</time>
      </trkpt>
      <trkpt lat="50.79123" lon="4.65097">
        <ele>49</ele>
        <time>2019-12-30T13:27:24+01:00</time>
      </trkpt>
      <trkpt lat="50.79051" lon="4.64957">
        <ele>41</ele>
        <time>2019-12-30T13:27:29+01:00</time>
      </trkpt>
      <trkpt lat="50.78959" lon="4.64955">
        <ele>47</ele>
        <time>2019-12-30T13:27:34+01:00</time>
      </trkpt>
      <trkpt lat="50.78847" lon="4.65045">
        <ele>65</ele>
        <time>2019-12-30T13:27:39+01:00</time>
      </trkpt>
      <trkpt lat="50.78787" lon="4.65178">
        <ele>82</ele>
        <time>2019-12-30T13:27:44+01:00</time>
      </trkpt>
      <trkpt lat="50.78502" lon="4.65625">
        <ele>88</ele>
        <time>2019-12-30T13:27:49+01:00</time>
      </trkpt>
      <trkpt lat="50.78376" lon="4.65764">
        <ele>86</ele>
        <time>2019-12-30T13:27:54+01:00</time>
      </trkpt>
      <trkpt lat="50.78182" lon="4.65754">
        <ele>83</ele>
        <time>2019-12-30T13:27:59+01:00</time>
      </trkpt>
      <trkpt lat="50.78117" lon="4.65764">
        <ele>85</ele>
        <time>2019-12-30T13:28:04+01:00</time>
      </trkpt>
      <trkpt lat="50.78091" lon="4.65792">
        <ele>84</ele>
        <time>2019-12-30T13:28:09+01:00</time>
      </trkpt>
      <trkpt lat="50.77981" lon="4.6582">
        <ele>85</ele>
        <time>2019-12-30T13:28:14+01:00</time>
      </trkpt>
      <trkpt lat="50.7786" lon="4.6594">
        <ele>79</ele>
        <time>2019-12-30T13:28:19+01:00</time>
      </trkpt>
      <trkpt lat="50.77812" lon="4.66078">
        <ele>81</ele>
        <time>2019-12-30T13:28:24+01:00</time>
      </trkpt>
      <trkpt lat="50.77755" lon="4.66204">
        <ele>89</ele>
        <time>2019-12-30T13:28:29+01:00</time>
      </trkpt>
      <trkpt lat="50.77691" lon="4.6626">
        <ele>88</ele>
        <time>2019-12-30T13:28:34+01:00</time>
      </trkpt>
      <trkpt lat="50.77615" lon="4.66099">
        <ele>84</ele>
        <time>2019-12-30T13:28:39+01:00</time>
      </trkpt>
      <trkpt lat="50.77436" lon="4.65805">
        <ele>80</ele>
        <time>2019-12-30T13:28:44+01:00</time>
      </trkpt>
      <trkpt lat="50.77712" lon="4.65457">
        <ele>65</ele>
        <time>2019-12-30T13:28:49+01:00</time>
      </trkpt>
      <trkpt lat="50.77711" lon="4.65365">
        <ele>63</ele>
        <time>2019-12-30T13:28:54+01:00</time>
      </trkpt>
      <trkpt lat="50.77759" lon="4.65217">
        <ele>45</ele>
        <time>2019-12-30T13:28:59+01:00</time>
      </trkpt>
      <trkpt lat="50.77805" lon="4.6523">
        <ele>45</ele>
        <time>2019-12-30T13:29:04+01:00</time>
      </trkpt>
      <trkpt lat="50.77825" lon="4.65133">
        <ele>39</ele>
        <time>2019-12-30T13:29:09+01:00</time>
      </trkpt>
    </trkseg>
  </trk>
</gpx>